createdAt,value
2019-02-14T00:00:06.868Z,22.87
2019-02-14T00:02:34.629Z,22.00
2019-02-14T00:05:03.112Z,22.13
2019-02-14T00:07:30.990Z,20.80
2019-02-14T00:09:58.750Z,21.83
2019-02-14T00:12:26.505Z,20.10
2019-02-14T00:14:54.267Z,20.90
2019-02-14T00:17:21.939Z,22.13
2019-02-14T00:19:49.713Z,20.03
2019-02-14T00:22:17.463Z,22.43
2019-02-14T00:24:45.450Z,19.27
2019-02-14T00:27:13.201Z,20.17
2019-02-14T00:29:40.851Z,21.67
2019-02-14T00:32:08.751Z,21.33
2019-02-14T00:34:36.508Z,19.93
2019-02-14T00:37:04.280Z,20.00
2019-02-14T00:39:32.062Z,19.70
2019-02-14T00:41:59.908Z,21.77
2019-02-14T00:44:27.789Z,20.20
2019-02-14T00:46:55.540Z,20.27
2019-02-14T00:49:23.425Z,18.27
2019-02-14T00:51:51.189Z,19.80
2019-02-14T00:54:18.961Z,19.40
2019-02-14T00:56:46.767Z,18.10
2019-02-14T00:59:14.416Z,18.53
2019-02-14T01:01:42.140Z,17.30
2019-02-14T01:04:10.010Z,17.60
2019-02-14T01:06:37.776Z,16.67
2019-02-14T01:09:06.166Z,16.37
2019-02-14T01:11:34.029Z,17.50
2019-02-14T01:14:01.777Z,16.40
2019-02-14T01:16:29.439Z,16.80
2019-02-14T01:18:57.115Z,15.93
2019-02-14T01:21:25.196Z,16.07
2019-02-14T01:23:52.957Z,15.57
2019-02-14T01:26:20.718Z,16.30
2019-02-14T01:28:48.595Z,16.40
2019-02-14T01:31:16.361Z,16.50
2019-02-14T01:33:44.117Z,16.70
2019-02-14T01:36:11.898Z,16.80
2019-02-14T01:38:39.743Z,16.00
2019-02-14T01:41:07.629Z,18.23
2019-02-14T01:43:35.497Z,16.37
2019-02-14T01:46:03.253Z,16.30
2019-02-14T01:48:30.913Z,16.50
2019-02-14T01:50:58.801Z,16.03
2019-02-14T01:53:26.552Z,15.87
2019-02-14T01:55:54.307Z,14.37
2019-02-14T01:58:22.072Z,15.10
2019-02-14T02:00:49.957Z,16.80
2019-02-14T02:03:17.612Z,15.47
2019-02-14T02:05:50.837Z,16.00
2019-02-14T02:08:14.896Z,16.27
2019-02-14T02:10:42.765Z,14.67
2019-02-14T02:13:10.635Z,15.00
2019-02-14T02:15:38.292Z,16.30
2019-02-14T02:18:06.161Z,15.37
2019-02-14T02:20:33.931Z,14.77
2019-02-14T02:23:01.692Z,17.13
2019-02-14T02:25:29.443Z,14.60
2019-02-14T02:27:57.223Z,16.47
2019-02-14T02:30:24.985Z,15.10
2019-02-14T02:32:52.789Z,16.00
2019-02-14T02:35:20.512Z,14.53
2019-02-14T02:37:48.285Z,13.43
2019-02-14T02:40:16.049Z,12.67
2019-02-14T02:42:43.925Z,12.77
2019-02-14T02:45:12.325Z,14.43
2019-02-14T02:47:41.839Z,13.67
2019-02-14T02:50:10.639Z,13.57
2019-02-14T02:52:38.872Z,13.10
2019-02-14T02:55:07.566Z,13.00
2019-02-14T02:57:35.336Z,14.63
2019-02-14T03:00:04.527Z,13.60
2019-02-14T03:02:32.280Z,12.97
2019-02-14T03:05:00.133Z,12.30
2019-02-14T03:07:28.323Z,13.33
2019-02-14T03:09:56.212Z,13.20
2019-02-14T03:12:24.284Z,13.90
2019-02-14T03:14:52.059Z,13.57
2019-02-14T03:17:20.023Z,12.33
2019-02-14T03:19:47.887Z,12.07
2019-02-14T03:22:15.693Z,12.57
2019-02-14T03:24:43.525Z,13.33
2019-02-14T03:27:11.271Z,13.20
2019-02-14T03:29:39.155Z,13.80
2019-02-14T03:32:06.788Z,11.50
2019-02-14T03:34:34.584Z,11.97
2019-02-14T03:37:02.461Z,11.63
2019-02-14T03:39:30.226Z,12.20
2019-02-14T03:41:57.968Z,12.40
2019-02-14T03:44:25.851Z,11.70
2019-02-14T03:46:53.828Z,12.33
2019-02-14T03:49:21.592Z,11.40
2019-02-14T03:51:49.396Z,11.67
2019-02-14T03:54:17.142Z,11.63
2019-02-14T03:56:44.784Z,11.53
2019-02-14T03:59:12.659Z,11.60
2019-02-14T04:01:40.526Z,11.43
2019-02-14T04:04:08.223Z,11.87
2019-02-14T04:06:35.958Z,12.10
2019-02-14T04:09:04.841Z,11.63
2019-02-14T04:11:32.597Z,12.13
2019-02-14T04:14:00.368Z,11.07
2019-02-14T04:16:28.154Z,13.17
2019-02-14T04:18:55.911Z,11.60
2019-02-14T04:21:23.681Z,11.97
2019-02-14T04:23:51.540Z,11.87
2019-02-14T04:26:19.412Z,11.53
2019-02-14T04:28:47.282Z,10.83
2019-02-14T04:31:15.038Z,10.87
2019-02-14T04:33:42.812Z,12.23
2019-02-14T04:36:10.581Z,11.10
2019-02-14T04:38:38.448Z,11.63
2019-02-14T04:41:06.080Z,12.00
2019-02-14T04:43:33.882Z,12.10
2019-02-14T04:46:01.636Z,11.10
2019-02-14T04:48:29.292Z,11.40
2019-02-14T04:50:57.169Z,10.77
2019-02-14T04:53:24.929Z,10.87
2019-02-14T04:55:52.696Z,12.63
2019-02-14T04:58:20.477Z,13.10
2019-02-14T05:00:48.239Z,12.20
2019-02-14T05:03:16.113Z,11.77
2019-02-14T05:05:43.868Z,12.50
2019-02-14T05:08:11.632Z,14.37
2019-02-14T05:10:39.409Z,13.83
2019-02-14T05:13:07.128Z,14.23
2019-02-14T05:15:34.837Z,13.43
2019-02-14T05:18:02.603Z,13.27
2019-02-14T05:20:30.368Z,14.20
2019-02-14T05:22:58.137Z,16.80
2019-02-14T05:25:25.999Z,14.47
2019-02-14T05:27:53.627Z,15.07
2019-02-14T05:30:21.413Z,12.87
2019-02-14T05:32:49.394Z,13.67
2019-02-14T05:35:17.267Z,14.30
2019-02-14T05:37:45.015Z,13.90
2019-02-14T05:40:13.106Z,17.97
2019-02-14T05:42:40.757Z,18.40
2019-02-14T05:45:10.072Z,20.33
2019-02-14T05:47:37.846Z,20.23
2019-02-14T05:50:06.841Z,19.90
2019-02-14T05:52:34.803Z,18.03
2019-02-14T05:55:02.670Z,18.47
2019-02-14T05:57:30.535Z,18.63
2019-02-14T05:59:58.510Z,20.03
2019-02-14T06:02:26.481Z,25.90
2019-02-14T06:04:54.242Z,21.10
2019-02-14T06:07:22.116Z,15.80
2019-02-14T06:09:49.876Z,15.93
2019-02-14T06:12:17.527Z,12.70
2019-02-14T06:14:45.612Z,12.47
2019-02-14T06:17:13.313Z,11.87
2019-02-14T06:19:41.043Z,12.13
2019-02-14T06:22:08.821Z,12.77
2019-02-14T06:24:36.682Z,14.77
2019-02-14T06:27:04.454Z,13.33
2019-02-14T06:29:32.191Z,14.60
2019-02-14T06:31:59.936Z,15.13
2019-02-14T06:34:27.635Z,14.70
2019-02-14T06:36:55.406Z,14.13
2019-02-14T06:39:23.276Z,14.67
2019-02-14T06:41:51.145Z,14.40
2019-02-14T06:44:18.812Z,12.97
2019-02-14T06:46:46.577Z,13.70
2019-02-14T06:49:14.540Z,12.80
2019-02-14T06:51:42.418Z,12.03
2019-02-14T06:54:10.047Z,14.70
2019-02-14T06:56:37.904Z,26.17
2019-02-14T06:59:05.705Z,16.33
2019-02-14T07:01:33.579Z,15.67
2019-02-14T07:04:01.336Z,16.17
2019-02-14T07:06:29.117Z,15.77
2019-02-14T07:08:56.979Z,15.23
2019-02-14T07:11:24.607Z,16.50
2019-02-14T07:13:52.414Z,17.17
2019-02-14T07:16:20.272Z,19.83
2019-02-14T07:18:47.969Z,18.63
2019-02-14T07:21:15.813Z,16.90
2019-02-14T07:23:43.582Z,15.27
2019-02-14T07:26:11.329Z,18.93
2019-02-14T07:28:39.210Z,22.03
2019-02-14T07:31:06.883Z,18.00
2019-02-14T07:33:34.837Z,18.47
2019-02-14T07:36:02.604Z,17.13
2019-02-14T07:38:30.255Z,16.17
2019-02-14T07:40:58.041Z,14.70
2019-02-14T07:43:25.783Z,15.17
2019-02-14T07:45:53.554Z,15.80
2019-02-14T07:48:21.235Z,14.87
2019-02-14T07:50:48.988Z,13.30
2019-02-14T07:53:16.760Z,14.73
2019-02-14T07:55:44.531Z,14.83
2019-02-14T07:58:12.302Z,13.33
2019-02-14T08:00:40.025Z,13.23
2019-02-14T08:03:07.825Z,12.80
2019-02-14T08:05:35.697Z,12.83
2019-02-14T08:08:03.391Z,11.27
2019-02-14T08:10:31.235Z,9.40
2019-02-14T08:12:58.994Z,10.00
2019-02-14T08:15:26.865Z,8.20
2019-02-14T08:17:54.828Z,8.77
2019-02-14T08:20:22.704Z,7.37
2019-02-14T08:22:50.450Z,7.87
2019-02-14T08:25:18.234Z,8.37
2019-02-14T08:27:46.106Z,8.57
2019-02-14T08:30:14.985Z,10.20
2019-02-14T08:32:42.746Z,64.83
2019-02-14T08:35:10.524Z,37.23
2019-02-14T08:37:44.946Z,13.87
2019-02-14T08:40:09.211Z,10.40
2019-02-14T08:42:36.950Z,9.30
2019-02-14T08:45:06.050Z,32.07
2019-02-14T08:47:33.766Z,48.23
2019-02-14T08:50:01.520Z,15.87
2019-02-14T08:52:29.372Z,10.63
2019-02-14T08:54:57.055Z,11.57
2019-02-14T08:57:24.825Z,15.40
2019-02-14T08:59:53.099Z,10.40
2019-02-14T09:02:20.861Z,11.87
2019-02-14T09:04:48.682Z,11.57
2019-02-14T09:07:16.508Z,11.40
2019-02-14T09:09:44.266Z,14.43
2019-02-14T09:12:12.237Z,13.30
2019-02-14T09:14:39.876Z,11.87
2019-02-14T09:17:07.661Z,12.20
2019-02-14T09:19:35.541Z,17.53
2019-02-14T09:22:03.403Z,13.83
2019-02-14T09:24:31.270Z,12.00
2019-02-14T09:26:58.975Z,11.53
2019-02-14T09:29:26.798Z,11.30
2019-02-14T09:31:54.512Z,10.50
2019-02-14T09:34:22.234Z,11.10
2019-02-14T09:36:50.001Z,10.23
2019-02-14T09:39:17.753Z,10.97
2019-02-14T09:41:45.408Z,10.47
2019-02-14T09:44:13.304Z,10.67
2019-02-14T09:46:41.163Z,10.50
2019-02-14T09:49:09.040Z,10.50
2019-02-14T09:51:36.794Z,10.33
2019-02-14T09:54:05.304Z,9.93
2019-02-14T09:56:33.053Z,9.57
2019-02-14T09:59:00.807Z,9.23
2019-02-14T10:01:28.476Z,8.90
2019-02-14T10:03:56.346Z,9.07
2019-02-14T10:06:24.118Z,11.73
2019-02-14T10:08:51.888Z,13.33
2019-02-14T10:11:19.564Z,13.20
2019-02-14T10:13:47.407Z,13.13
2019-02-14T10:16:15.374Z,15.37
2019-02-14T10:18:43.121Z,11.83
2019-02-14T10:21:10.748Z,9.33
2019-02-14T10:23:38.760Z,10.25
2019-02-14T10:26:06.646Z,16.00
2019-02-14T10:28:34.514Z,10.70
2019-02-14T10:31:02.261Z,9.57
2019-02-14T10:33:30.036Z,10.90
2019-02-14T10:35:57.845Z,11.50
2019-02-14T10:38:25.586Z,12.03
2019-02-14T10:40:53.207Z,10.70
2019-02-14T10:43:20.917Z,10.27
2019-02-14T10:45:48.876Z,10.07
2019-02-14T10:48:16.561Z,11.77
2019-02-14T10:50:44.229Z,8.40
2019-02-14T10:53:12.374Z,9.17
2019-02-14T10:55:41.080Z,8.67
2019-02-14T10:58:08.751Z,9.47
2019-02-14T11:00:36.814Z,8.20
2019-02-14T11:03:04.533Z,8.43
2019-02-14T11:05:32.308Z,9.17
2019-02-14T11:07:59.972Z,8.10
2019-02-14T11:10:27.907Z,7.67
2019-02-14T11:12:55.610Z,8.83
2019-02-14T11:15:25.465Z,10.33
2019-02-14T11:17:53.159Z,9.93
2019-02-14T11:20:20.866Z,9.40
2019-02-14T11:22:49.265Z,7.50
2019-02-14T11:25:30.736Z,10.10
2019-02-14T11:27:58.573Z,9.50
2019-02-14T11:30:26.491Z,10.73
2019-02-14T11:32:54.220Z,9.73
2019-02-14T11:35:21.953Z,9.03
2019-02-14T11:37:49.587Z,11.70
2019-02-14T11:40:17.557Z,10.53
2019-02-14T11:42:45.216Z,11.50
2019-02-14T11:45:14.678Z,12.33
2019-02-14T11:47:42.385Z,12.50
2019-02-14T11:50:10.958Z,11.17
2019-02-14T11:52:38.960Z,10.53
2019-02-14T11:55:07.232Z,11.43
2019-02-14T11:57:34.907Z,11.17
2019-02-14T12:00:03.036Z,10.10
2019-02-14T12:02:30.706Z,10.43
2019-02-14T12:04:58.422Z,9.73
2019-02-14T12:07:26.090Z,9.20
2019-02-14T12:09:53.789Z,9.20
2019-02-14T12:12:22.954Z,9.97
2019-02-14T12:14:50.844Z,9.50
2019-02-14T12:17:18.478Z,10.37
2019-02-14T12:19:46.151Z,8.90
2019-02-14T12:22:14.217Z,11.07
2019-02-14T12:24:41.919Z,11.67
2019-02-14T12:27:09.588Z,12.60
2019-02-14T12:29:37.353Z,12.70
2019-02-14T12:32:05.576Z,12.45
2019-02-14T12:34:33.274Z,12.23
2019-02-14T12:37:00.979Z,13.70
2019-02-14T12:39:28.654Z,16.03
2019-02-14T12:41:56.967Z,13.00
2019-02-14T12:44:24.648Z,15.77
2019-02-14T12:46:52.350Z,14.20
2019-02-14T12:49:20.114Z,11.23
2019-02-14T12:51:47.890Z,14.77
2019-02-14T12:54:15.564Z,12.13
2019-02-14T12:56:43.357Z,10.43
2019-02-14T12:59:11.058Z,11.23
2019-02-14T13:01:38.754Z,10.77
2019-02-14T13:04:06.445Z,11.77
2019-02-14T13:06:34.204Z,10.73
2019-02-14T13:09:01.867Z,11.33
2019-02-14T13:11:29.577Z,9.23
2019-02-14T13:13:57.328Z,11.27
2019-02-14T13:16:25.004Z,9.37
2019-02-14T13:18:52.720Z,10.50
2019-02-14T13:21:20.399Z,11.37
2019-02-14T13:23:48.064Z,8.50
2019-02-14T13:26:15.775Z,11.30
2019-02-14T13:28:43.504Z,9.83
2019-02-14T13:31:11.247Z,10.43
2019-02-14T13:33:38.884Z,9.40
2019-02-14T13:36:06.688Z,12.37
2019-02-14T13:38:34.535Z,9.27
2019-02-14T13:41:02.216Z,10.13
2019-02-14T13:43:30.043Z,8.73
2019-02-14T13:45:57.668Z,9.00
2019-02-14T13:48:25.540Z,9.20
2019-02-14T13:50:53.224Z,9.50
2019-02-14T13:53:20.896Z,9.30
2019-02-14T13:55:48.580Z,8.90
2019-02-14T13:58:16.428Z,10.10
2019-02-14T14:00:44.105Z,11.17
2019-02-14T14:03:11.804Z,26.70
2019-02-14T14:05:39.473Z,27.23
2019-02-14T14:08:07.303Z,18.57
2019-02-14T14:10:34.927Z,12.10
2019-02-14T14:13:02.634Z,11.73
2019-02-14T14:15:30.361Z,11.30
2019-02-14T14:17:58.031Z,10.90
2019-02-14T14:20:26.064Z,10.80
2019-02-14T14:22:53.729Z,10.60
2019-02-14T14:25:21.405Z,13.00
2019-02-14T14:27:49.080Z,15.53
2019-02-14T14:30:16.719Z,16.60
2019-02-14T14:32:44.436Z,15.90
2019-02-14T14:35:12.121Z,19.03
2019-02-14T14:37:39.801Z,34.40
2019-02-14T14:40:09.006Z,26.80
2019-02-14T14:42:41.316Z,29.83
2019-02-14T14:45:10.706Z,27.73
2019-02-14T14:47:38.341Z,28.73
2019-02-14T14:50:07.373Z,22.33
2019-02-14T14:52:35.051Z,16.17
2019-02-14T14:55:02.816Z,13.20
2019-02-14T14:57:30.468Z,13.63
2019-02-14T14:59:58.129Z,11.77
2019-02-14T15:02:25.916Z,13.47
2019-02-14T15:04:53.780Z,15.90
2019-02-14T15:07:21.558Z,16.90
2019-02-14T15:09:57.291Z,14.80
2019-02-14T15:12:18.611Z,15.40
2019-02-14T15:14:46.389Z,13.57
2019-02-14T15:17:14.258Z,13.60
2019-02-14T15:19:42.120Z,12.97
2019-02-14T15:22:09.885Z,15.57
2019-02-14T15:24:37.648Z,14.17
2019-02-14T15:27:05.378Z,13.10
2019-02-14T15:29:33.492Z,12.10
2019-02-14T15:32:01.360Z,17.17
2019-02-14T15:34:29.223Z,19.60
2019-02-14T15:36:56.993Z,16.47
2019-02-14T15:39:24.654Z,20.93
2019-02-14T15:41:52.423Z,18.97
2019-02-14T15:44:20.149Z,14.37
2019-02-14T15:46:47.961Z,19.03
2019-02-14T15:49:15.938Z,23.00
2019-02-14T15:51:43.844Z,17.53
2019-02-14T15:54:11.920Z,27.60
2019-02-14T15:56:39.745Z,26.30
2019-02-14T15:59:07.617Z,25.13
2019-02-14T16:01:35.300Z,22.77
2019-02-14T16:04:04.846Z,19.57
2019-02-14T16:06:32.363Z,17.80
2019-02-14T16:09:00.113Z,18.67
2019-02-14T16:11:27.982Z,17.20
2019-02-14T16:13:57.166Z,17.17
2019-02-14T16:16:24.921Z,18.03
2019-02-14T16:18:52.700Z,18.80
2019-02-14T16:21:20.671Z,18.60
2019-02-14T16:23:48.433Z,18.40
2019-02-14T16:26:17.115Z,29.67
2019-02-14T16:28:46.002Z,37.73
2019-02-14T16:31:13.878Z,61.30
2019-02-14T16:33:41.744Z,48.37
2019-02-14T16:36:09.527Z,38.23
2019-02-14T16:38:37.383Z,80.53
2019-02-14T16:41:05.149Z,69.90
2019-02-14T16:43:32.919Z,72.80
2019-02-14T16:46:00.697Z,59.73
2019-02-14T16:48:28.452Z,44.37
2019-02-14T16:50:56.403Z,37.37
2019-02-14T16:53:24.184Z,28.60
2019-02-14T16:55:51.952Z,25.47
2019-02-14T16:58:19.701Z,22.40
2019-02-14T17:00:47.381Z,20.60
2019-02-14T17:03:15.141Z,19.57
2019-02-14T17:05:42.905Z,17.63
2019-02-14T17:08:10.682Z,19.53
2019-02-14T17:10:38.544Z,23.03
2019-02-14T17:13:06.309Z,25.63
2019-02-14T17:15:35.921Z,30.77
2019-02-14T17:18:03.691Z,27.73
2019-02-14T17:20:31.454Z,25.93
2019-02-14T17:22:59.308Z,29.33
2019-02-14T17:25:27.187Z,37.73
2019-02-14T17:27:55.055Z,35.33
2019-02-14T17:30:22.691Z,28.53
2019-02-14T17:32:50.484Z,29.43
2019-02-14T17:35:18.358Z,32.90
2019-02-14T17:37:46.130Z,22.77
2019-02-14T17:40:13.893Z,18.80
2019-02-14T17:42:41.654Z,19.33
2019-02-14T17:45:09.933Z,18.97
2019-02-14T17:47:37.801Z,19.67
2019-02-14T17:50:05.717Z,23.33
2019-02-14T17:52:33.532Z,20.70
2019-02-14T17:55:01.302Z,18.27
2019-02-14T17:57:29.074Z,20.90
2019-02-14T17:59:56.731Z,20.17
2019-02-14T18:02:24.480Z,20.23
2019-02-14T18:04:52.362Z,20.83
2019-02-14T18:07:20.241Z,23.47
2019-02-14T18:09:48.006Z,30.23
2019-02-14T18:12:15.764Z,29.60
2019-02-14T18:14:43.529Z,27.03
2019-02-14T18:17:11.506Z,29.20
2019-02-14T18:19:39.280Z,22.30
2019-02-14T18:22:07.244Z,18.83
2019-02-14T18:24:34.999Z,18.60
2019-02-14T18:27:02.764Z,26.23
2019-02-14T18:29:30.645Z,22.07
2019-02-14T18:31:58.397Z,18.50
2019-02-14T18:34:26.377Z,21.67
2019-02-14T18:36:54.066Z,18.90
2019-02-14T18:39:22.104Z,19.73
2019-02-14T18:41:49.881Z,20.70
2019-02-14T18:44:17.627Z,19.63
2019-02-14T18:46:45.368Z,18.27
2019-02-14T18:49:13.057Z,18.93
2019-02-14T18:51:40.766Z,19.20
2019-02-14T18:54:08.510Z,21.33
2019-02-14T18:56:36.374Z,25.40
2019-02-14T18:59:04.028Z,25.73
2019-02-14T19:01:31.793Z,26.70
2019-02-14T19:04:00.080Z,30.45
2019-02-14T19:06:27.943Z,24.73
2019-02-14T19:08:55.616Z,24.47
2019-02-14T19:11:23.379Z,23.23
2019-02-14T19:13:51.253Z,21.73
2019-02-14T19:16:19.115Z,21.73
2019-02-14T19:18:46.882Z,21.00
2019-02-14T19:21:14.603Z,21.77
2019-02-14T19:23:42.408Z,21.50
2019-02-14T19:26:10.051Z,20.70
2019-02-14T19:28:37.845Z,19.80
2019-02-14T19:31:05.531Z,19.20
2019-02-14T19:33:33.372Z,21.60
2019-02-14T19:36:01.236Z,20.77
2019-02-14T19:38:29.110Z,21.53
2019-02-14T19:40:56.882Z,22.77
2019-02-14T19:43:24.847Z,24.13
2019-02-14T19:45:52.608Z,22.03
2019-02-14T19:48:20.477Z,21.53
2019-02-14T19:50:48.244Z,22.93
2019-02-14T19:53:16.112Z,26.43
2019-02-14T19:55:43.891Z,29.93
2019-02-14T19:58:11.749Z,27.50
2019-02-14T20:00:39.617Z,23.27
2019-02-14T20:03:07.378Z,24.30
2019-02-14T20:05:35.148Z,24.77
2019-02-14T20:08:03.592Z,22.27
2019-02-14T20:10:31.536Z,23.77
2019-02-14T20:12:59.587Z,37.57
2019-02-14T20:15:36.399Z,29.47
2019-02-14T20:17:56.849Z,28.53
2019-02-14T20:20:24.603Z,23.67
2019-02-14T20:22:52.322Z,22.73
2019-02-14T20:25:21.468Z,20.63
2019-02-14T20:27:50.085Z,21.53
2019-02-14T20:30:17.952Z,21.20
2019-02-14T20:32:45.901Z,20.23
2019-02-14T20:35:13.768Z,20.97
2019-02-14T20:37:41.538Z,20.80
2019-02-14T20:40:09.910Z,21.53
2019-02-14T20:42:37.659Z,21.37
2019-02-14T20:45:09.738Z,22.97
2019-02-14T20:47:37.514Z,23.43
2019-02-14T20:50:06.811Z,23.20
2019-02-14T20:52:34.535Z,24.70
2019-02-14T20:55:02.449Z,25.40
2019-02-14T20:57:30.297Z,26.07
2019-02-14T20:59:58.073Z,25.67
2019-02-14T21:02:25.833Z,26.47
2019-02-14T21:04:53.630Z,32.57
2019-02-14T21:07:21.360Z,35.63
2019-02-14T21:09:49.140Z,30.23
2019-02-14T21:12:16.803Z,26.60
2019-02-14T21:14:44.668Z,27.33
2019-02-14T21:17:12.433Z,28.13
2019-02-14T21:19:40.213Z,26.13
2019-02-14T21:22:17.756Z,23.37
2019-02-14T21:24:37.615Z,24.83
2019-02-14T21:27:05.232Z,24.73
2019-02-14T21:29:33.120Z,33.17
2019-02-14T21:32:00.763Z,42.10
2019-02-14T21:34:28.426Z,33.30
2019-02-14T21:36:56.208Z,28.20
2019-02-14T21:39:24.093Z,24.83
2019-02-14T21:41:51.863Z,24.57
2019-02-14T21:44:19.525Z,22.57
2019-02-14T21:46:47.477Z,22.50
2019-02-14T21:49:15.446Z,24.90
2019-02-14T21:51:43.324Z,20.20
2019-02-14T21:54:11.087Z,18.17
2019-02-14T21:56:39.209Z,18.67
2019-02-14T21:59:07.144Z,17.67
2019-02-14T22:01:34.997Z,17.63
2019-02-14T22:04:02.761Z,16.83
2019-02-14T22:06:30.520Z,17.23
2019-02-14T22:08:58.509Z,28.27
2019-02-14T22:11:26.259Z,19.90
2019-02-14T22:13:54.135Z,22.03
2019-02-14T22:16:21.782Z,28.23
2019-02-14T22:18:49.678Z,16.87
2019-02-14T22:21:17.426Z,13.83
2019-02-14T22:23:45.296Z,16.93
2019-02-14T22:26:13.160Z,14.83
2019-02-14T22:28:41.033Z,15.90
2019-02-14T22:31:08.807Z,16.53
2019-02-14T22:33:36.666Z,19.53
2019-02-14T22:36:05.565Z,17.07
2019-02-14T22:38:33.236Z,16.67
2019-02-14T22:41:00.920Z,15.60
2019-02-14T22:43:28.853Z,15.77
2019-02-14T22:45:57.232Z,15.03
2019-02-14T22:48:24.905Z,16.53
2019-02-14T22:50:52.766Z,16.60
2019-02-14T22:53:20.545Z,15.40
2019-02-14T22:55:48.403Z,18.27
2019-02-14T22:58:16.676Z,24.80
2019-02-14T23:00:48.526Z,33.17
2019-02-14T23:03:16.400Z,28.23
2019-02-14T23:05:44.275Z,22.20
2019-02-14T23:08:12.144Z,23.07
2019-02-14T23:10:40.016Z,22.33
2019-02-14T23:13:07.762Z,21.83
2019-02-14T23:15:35.553Z,21.50
2019-02-14T23:18:03.649Z,22.93
2019-02-14T23:20:31.387Z,23.57
2019-02-14T23:23:00.916Z,21.67
2019-02-14T23:25:28.553Z,18.23
2019-02-14T23:27:57.250Z,17.63
2019-02-14T23:30:25.213Z,19.30
2019-02-14T23:32:52.977Z,18.13
2019-02-14T23:35:20.672Z,17.43
2019-02-14T23:37:48.411Z,19.90
2019-02-14T23:40:16.156Z,17.33
2019-02-14T23:42:44.044Z,17.30
2019-02-14T23:45:11.712Z,18.20
2019-02-14T23:47:39.473Z,18.27
2019-02-14T23:50:08.157Z,18.67
2019-02-14T23:52:36.332Z,16.50
2019-02-14T23:55:04.826Z,20.13
2019-02-14T23:57:32.534Z,19.03
